sensor_id;sensor_type;location;lat;lon;timestamp;P1;durP1;ratioP1;P2;durP2;ratioP2
76447;SDS011;65284;51.040;13.722;2023-09-07T00:01:15;10.23;;;7.00;;
76447;SDS011;65284;51.040;13.722;2023-09-07T00:03:42;9.60;;;5.88;;
76447;SDS011;65284;51.040;13.722;2023-09-07T00:06:08;9.43;;;5.63;;
76447;SDS011;65284;51.040;13.722;2023-09-07T00:08:35;9.38;;;5.90;;
76447;SDS011;65284;51.040;13.722;2023-09-07T00:11:05;9.27;;;5.88;;
76447;SDS011;65284;51.040;13.722;2023-09-07T00:13:32;10.73;;;5.68;;
76447;SDS011;65284;51.040;13.722;2023-09-07T00:16:00;10.48;;;5.57;;
76447;SDS011;65284;51.040;13.722;2023-09-07T00:18:28;11.32;;;5.88;;
76447;SDS011;65284;51.040;13.722;2023-09-07T00:20:55;9.07;;;5.70;;
76447;SDS011;65284;51.040;13.722;2023-09-07T00:23:22;9.95;;;5.75;;
76447;SDS011;65284;51.040;13.722;2023-09-07T00:25:48;8.80;;;6.25;;
76447;SDS011;65284;51.040;13.722;2023-09-07T00:28:15;11.02;;;6.22;;
76447;SDS011;65284;51.040;13.722;2023-09-07T00:30:41;8.80;;;5.95;;
76447;SDS011;65284;51.040;13.722;2023-09-07T00:33:08;8.88;;;5.95;;
76447;SDS011;65284;51.040;13.722;2023-09-07T00:35:35;8.93;;;6.20;;
76447;SDS011;65284;51.040;13.722;2023-09-07T00:38:01;10.23;;;6.03;;
76447;SDS011;65284;51.040;13.722;2023-09-07T00:40:28;8.70;;;6.22;;
76447;SDS011;65284;51.040;13.722;2023-09-07T00:42:56;8.35;;;5.97;;
76447;SDS011;65284;51.040;13.722;2023-09-07T00:45:24;9.27;;;6.32;;
76447;SDS011;65284;51.040;13.722;2023-09-07T00:47:51;8.27;;;5.82;;
76447;SDS011;65284;51.040;13.722;2023-09-07T00:50:18;9.18;;;6.30;;
76447;SDS011;65284;51.040;13.722;2023-09-07T00:52:45;9.35;;;6.00;;
76447;SDS011;65284;51.040;13.722;2023-09-07T00:55:13;8.70;;;6.35;;
76447;SDS011;65284;51.040;13.722;2023-09-07T00:57:39;8.82;;;5.75;;
76447;SDS011;65284;51.040;13.722;2023-09-07T01:00:08;9.18;;;6.18;;
76447;SDS011;65284;51.040;13.722;2023-09-07T01:02:36;10.25;;;5.93;;
76447;SDS011;65284;51.040;13.722;2023-09-07T01:05:03;10.48;;;5.90;;
76447;SDS011;65284;51.040;13.722;2023-09-07T01:07:37;11.45;;;5.63;;
76447;SDS011;65284;51.040;13.722;2023-09-07T01:10:13;8.82;;;5.72;;
76447;SDS011;65284;51.040;13.722;2023-09-07T01:12:40;8.55;;;5.90;;
76447;SDS011;65284;51.040;13.722;2023-09-07T01:15:07;9.10;;;5.88;;
76447;SDS011;65284;51.040;13.722;2023-09-07T01:17:33;7.85;;;5.57;;
76447;SDS011;65284;51.040;13.722;2023-09-07T01:20:04;8.93;;;5.75;;
76447;SDS011;65284;51.040;13.722;2023-09-07T01:22:32;9.27;;;5.72;;
76447;SDS011;65284;51.040;13.722;2023-09-07T01:24:59;8.70;;;5.60;;
76447;SDS011;65284;51.040;13.722;2023-09-07T01:27:26;7.78;;;5.60;;
76447;SDS011;65284;51.040;13.722;2023-09-07T01:29:53;7.95;;;5.80;;
76447;SDS011;65284;51.040;13.722;2023-09-07T01:32:20;9.18;;;6.00;;
76447;SDS011;65284;51.040;13.722;2023-09-07T01:34:46;10.80;;;6.13;;
76447;SDS011;65284;51.040;13.722;2023-09-07T01:37:13;9.20;;;6.15;;
76447;SDS011;65284;51.040;13.722;2023-09-07T01:39:39;10.38;;;6.38;;
76447;SDS011;65284;51.040;13.722;2023-09-07T01:42:06;10.05;;;5.72;;
76447;SDS011;65284;51.040;13.722;2023-09-07T01:44:32;9.75;;;5.97;;
76447;SDS011;65284;51.040;13.722;2023-09-07T01:46:59;8.23;;;5.82;;
76447;SDS011;65284;51.040;13.722;2023-09-07T01:49:26;8.23;;;5.82;;
76447;SDS011;65284;51.040;13.722;2023-09-07T01:51:52;8.60;;;6.10;;
76447;SDS011;65284;51.040;13.722;2023-09-07T01:54:18;8.85;;;5.72;;
76447;SDS011;65284;51.040;13.722;2023-09-07T01:56:47;8.40;;;5.80;;
76447;SDS011;65284;51.040;13.722;2023-09-07T01:59:14;9.15;;;5.95;;
76447;SDS011;65284;51.040;13.722;2023-09-07T02:01:40;10.25;;;6.35;;
76447;SDS011;65284;51.040;13.722;2023-09-07T02:04:07;7.97;;;5.80;;
76447;SDS011;65284;51.040;13.722;2023-09-07T02:06:33;11.35;;;6.55;;
76447;SDS011;65284;51.040;13.722;2023-09-07T02:09:00;7.70;;;5.75;;
76447;SDS011;65284;51.040;13.722;2023-09-07T02:11:26;10.35;;;6.13;;
76447;SDS011;65284;51.040;13.722;2023-09-07T02:13:53;11.52;;;6.10;;
76447;SDS011;65284;51.040;13.722;2023-09-07T02:16:19;9.23;;;6.03;;
76447;SDS011;65284;51.040;13.722;2023-09-07T02:18:48;9.73;;;5.80;;
76447;SDS011;65284;51.040;13.722;2023-09-07T02:21:15;10.20;;;6.13;;
76447;SDS011;65284;51.040;13.722;2023-09-07T02:23:42;10.57;;;5.55;;
76447;SDS011;65284;51.040;13.722;2023-09-07T02:26:09;8.00;;;5.75;;
76447;SDS011;65284;51.040;13.722;2023-09-07T02:28:35;9.32;;;6.05;;
76447;SDS011;65284;51.040;13.722;2023-09-07T02:31:02;9.15;;;5.72;;
76447;SDS011;65284;51.040;13.722;2023-09-07T02:33:30;10.50;;;6.20;;
76447;SDS011;65284;51.040;13.722;2023-09-07T02:35:56;8.85;;;5.68;;
76447;SDS011;65284;51.040;13.722;2023-09-07T02:38:23;9.18;;;6.32;;
76447;SDS011;65284;51.040;13.722;2023-09-07T02:40:50;8.88;;;5.57;;
76447;SDS011;65284;51.040;13.722;2023-09-07T02:43:16;8.52;;;5.88;;
76447;SDS011;65284;51.040;13.722;2023-09-07T02:45:42;10.10;;;6.72;;
76447;SDS011;65284;51.040;13.722;2023-09-07T02:48:09;10.63;;;6.00;;
76447;SDS011;65284;51.040;13.722;2023-09-07T02:50:36;9.77;;;6.20;;
76447;SDS011;65284;51.040;13.722;2023-09-07T02:53:02;9.25;;;6.18;;
76447;SDS011;65284;51.040;13.722;2023-09-07T02:55:30;11.18;;;6.30;;
76447;SDS011;65284;51.040;13.722;2023-09-07T02:57:57;9.30;;;6.15;;
76447;SDS011;65284;51.040;13.722;2023-09-07T03:00:23;11.52;;;6.28;;
76447;SDS011;65284;51.040;13.722;2023-09-07T03:02:50;7.47;;;5.60;;
76447;SDS011;65284;51.040;13.722;2023-09-07T03:05:18;10.68;;;6.05;;
76447;SDS011;65284;51.040;13.722;2023-09-07T03:07:45;8.68;;;5.90;;
76447;SDS011;65284;51.040;13.722;2023-09-07T03:10:13;8.73;;;6.20;;
76447;SDS011;65284;51.040;13.722;2023-09-07T03:12:40;10.15;;;6.13;;
76447;SDS011;65284;51.040;13.722;2023-09-07T03:15:06;10.95;;;6.30;;
76447;SDS011;65284;51.040;13.722;2023-09-07T03:17:33;8.70;;;6.00;;
76447;SDS011;65284;51.040;13.722;2023-09-07T03:20:00;11.95;;;6.85;;
76447;SDS011;65284;51.040;13.722;2023-09-07T03:22:30;9.95;;;6.05;;
76447;SDS011;65284;51.040;13.722;2023-09-07T03:24:56;10.63;;;5.93;;
76447;SDS011;65284;51.040;13.722;2023-09-07T03:27:23;10.13;;;6.40;;
76447;SDS011;65284;51.040;13.722;2023-09-07T03:29:49;10.07;;;6.85;;
76447;SDS011;65284;51.040;13.722;2023-09-07T03:32:18;9.50;;;5.72;;
76447;SDS011;65284;51.040;13.722;2023-09-07T03:34:44;8.48;;;5.97;;
76447;SDS011;65284;51.040;13.722;2023-09-07T03:37:11;9.93;;;5.88;;
76447;SDS011;65284;51.040;13.722;2023-09-07T03:39:38;11.40;;;6.13;;
76447;SDS011;65284;51.040;13.722;2023-09-07T03:42:04;9.68;;;6.35;;
76447;SDS011;65284;51.040;13.722;2023-09-07T03:44:31;8.68;;;5.88;;
76447;SDS011;65284;51.040;13.722;2023-09-07T03:46:57;17.00;;;11.70;;
76447;SDS011;65284;51.040;13.722;2023-09-07T03:49:24;8.95;;;6.30;;
76447;SDS011;65284;51.040;13.722;2023-09-07T03:51:50;12.38;;;6.78;;
76447;SDS011;65284;51.040;13.722;2023-09-07T03:54:17;9.50;;;6.60;;
76447;SDS011;65284;51.040;13.722;2023-09-07T03:56:43;11.05;;;6.10;;
76447;SDS011;65284;51.040;13.722;2023-09-07T03:59:09;9.63;;;6.25;;
76447;SDS011;65284;51.040;13.722;2023-09-07T04:01:37;14.38;;;8.52;;
76447;SDS011;65284;51.040;13.722;2023-09-07T04:04:03;12.40;;;7.28;;
76447;SDS011;65284;51.040;13.722;2023-09-07T04:06:30;11.50;;;6.97;;
76447;SDS011;65284;51.040;13.722;2023-09-07T04:08:57;9.65;;;6.25;;
76447;SDS011;65284;51.040;13.722;2023-09-07T04:11:23;10.25;;;6.53;;
76447;SDS011;65284;51.040;13.722;2023-09-07T04:13:50;10.15;;;6.53;;
76447;SDS011;65284;51.040;13.722;2023-09-07T04:16:16;10.05;;;6.60;;
76447;SDS011;65284;51.040;13.722;2023-09-07T04:18:43;11.27;;;6.70;;
76447;SDS011;65284;51.040;13.722;2023-09-07T04:21:10;10.48;;;6.35;;
76447;SDS011;65284;51.040;13.722;2023-09-07T04:23:37;8.80;;;5.75;;
76447;SDS011;65284;51.040;13.722;2023-09-07T04:26:08;11.05;;;6.50;;
76447;SDS011;65284;51.040;13.722;2023-09-07T04:28:36;13.68;;;6.53;;
76447;SDS011;65284;51.040;13.722;2023-09-07T04:31:03;10.48;;;6.05;;
76447;SDS011;65284;51.040;13.722;2023-09-07T04:33:30;9.57;;;6.47;;
76447;SDS011;65284;51.040;13.722;2023-09-07T04:36:05;13.85;;;6.35;;
76447;SDS011;65284;51.040;13.722;2023-09-07T04:38:41;9.90;;;6.60;;
76447;SDS011;65284;51.040;13.722;2023-09-07T04:41:08;10.30;;;6.53;;
76447;SDS011;65284;51.040;13.722;2023-09-07T04:43:39;14.25;;;6.57;;
76447;SDS011;65284;51.040;13.722;2023-09-07T04:46:09;9.07;;;6.55;;
76447;SDS011;65284;51.040;13.722;2023-09-07T04:48:36;9.98;;;6.28;;
76447;SDS011;65284;51.040;13.722;2023-09-07T04:51:06;15.18;;;6.90;;
76447;SDS011;65284;51.040;13.722;2023-09-07T04:53:34;12.10;;;6.60;;
76447;SDS011;65284;51.040;13.722;2023-09-07T04:56:05;10.88;;;6.30;;
76447;SDS011;65284;51.040;13.722;2023-09-07T04:58:34;14.80;;;6.97;;
76447;SDS011;65284;51.040;13.722;2023-09-07T05:01:02;17.15;;;6.78;;
76447;SDS011;65284;51.040;13.722;2023-09-07T05:03:32;11.65;;;6.40;;
76447;SDS011;65284;51.040;13.722;2023-09-07T05:05:59;11.57;;;6.10;;
76447;SDS011;65284;51.040;13.722;2023-09-07T05:08:27;14.32;;;6.70;;
76447;SDS011;65284;51.040;13.722;2023-09-07T05:11:00;10.77;;;6.93;;
76447;SDS011;65284;51.040;13.722;2023-09-07T05:13:29;14.98;;;7.63;;
76447;SDS011;65284;51.040;13.722;2023-09-07T05:15:57;10.43;;;6.70;;
76447;SDS011;65284;51.040;13.722;2023-09-07T05:18:25;11.70;;;7.22;;
76447;SDS011;65284;51.040;13.722;2023-09-07T05:20:52;11.48;;;7.43;;
76447;SDS011;65284;51.040;13.722;2023-09-07T05:23:19;13.45;;;7.38;;
76447;SDS011;65284;51.040;13.722;2023-09-07T05:25:54;12.80;;;6.80;;
76447;SDS011;65284;51.040;13.722;2023-09-07T05:28:21;12.93;;;6.10;;
76447;SDS011;65284;51.040;13.722;2023-09-07T05:30:48;11.80;;;6.22;;
76447;SDS011;65284;51.040;13.722;2023-09-07T05:33:16;15.52;;;6.30;;
76447;SDS011;65284;51.040;13.722;2023-09-07T05:35:43;10.32;;;6.25;;
76447;SDS011;65284;51.040;13.722;2023-09-07T05:38:11;10.25;;;6.28;;
76447;SDS011;65284;51.040;13.722;2023-09-07T05:40:42;12.45;;;6.20;;
76447;SDS011;65284;51.040;13.722;2023-09-07T05:43:10;11.07;;;6.57;;
76447;SDS011;65284;51.040;13.722;2023-09-07T05:45:38;11.07;;;6.00;;
76447;SDS011;65284;51.040;13.722;2023-09-07T05:48:06;13.73;;;6.32;;
76447;SDS011;65284;51.040;13.722;2023-09-07T05:50:34;10.60;;;5.97;;
76447;SDS011;65284;51.040;13.722;2023-09-07T05:53:02;9.52;;;6.05;;
76447;SDS011;65284;51.040;13.722;2023-09-07T05:55:29;11.93;;;6.50;;
76447;SDS011;65284;51.040;13.722;2023-09-07T05:57:57;9.80;;;5.90;;
76447;SDS011;65284;51.040;13.722;2023-09-07T06:00:24;11.05;;;5.75;;
76447;SDS011;65284;51.040;13.722;2023-09-07T06:02:50;9.30;;;5.57;;
76447;SDS011;65284;51.040;13.722;2023-09-07T06:05:17;14.05;;;6.60;;
76447;SDS011;65284;51.040;13.722;2023-09-07T06:07:44;11.55;;;6.15;;
76447;SDS011;65284;51.040;13.722;2023-09-07T06:10:11;13.13;;;7.60;;
76447;SDS011;65284;51.040;13.722;2023-09-07T06:12:37;10.48;;;6.30;;
76447;SDS011;65284;51.040;13.722;2023-09-07T06:15:04;13.73;;;7.35;;
76447;SDS011;65284;51.040;13.722;2023-09-07T06:17:31;11.00;;;5.90;;
76447;SDS011;65284;51.040;13.722;2023-09-07T06:19:57;13.68;;;7.05;;
76447;SDS011;65284;51.040;13.722;2023-09-07T06:22:24;10.52;;;6.30;;
76447;SDS011;65284;51.040;13.722;2023-09-07T06:24:51;13.02;;;6.00;;
76447;SDS011;65284;51.040;13.722;2023-09-07T06:27:17;11.20;;;5.63;;
76447;SDS011;65284;51.040;13.722;2023-09-07T06:29:44;10.52;;;5.60;;
76447;SDS011;65284;51.040;13.722;2023-09-07T06:32:10;11.52;;;5.53;;
76447;SDS011;65284;51.040;13.722;2023-09-07T06:34:36;12.65;;;6.03;;
76447;SDS011;65284;51.040;13.722;2023-09-07T06:37:04;10.45;;;6.40;;
76447;SDS011;65284;51.040;13.722;2023-09-07T06:39:30;13.05;;;6.05;;
76447;SDS011;65284;51.040;13.722;2023-09-07T06:41:57;10.75;;;5.82;;
76447;SDS011;65284;51.040;13.722;2023-09-07T06:44:23;9.40;;;5.32;;
76447;SDS011;65284;51.040;13.722;2023-09-07T06:46:50;9.45;;;5.05;;
76447;SDS011;65284;51.040;13.722;2023-09-07T06:49:16;9.65;;;5.20;;
76447;SDS011;65284;51.040;13.722;2023-09-07T06:51:43;10.10;;;5.15;;
76447;SDS011;65284;51.040;13.722;2023-09-07T06:54:09;11.52;;;5.20;;
76447;SDS011;65284;51.040;13.722;2023-09-07T06:56:36;9.15;;;5.22;;
76447;SDS011;65284;51.040;13.722;2023-09-07T06:59:02;8.93;;;5.25;;
76447;SDS011;65284;51.040;13.722;2023-09-07T07:01:29;9.85;;;5.38;;
76447;SDS011;65284;51.040;13.722;2023-09-07T07:03:56;11.30;;;5.35;;
76447;SDS011;65284;51.040;13.722;2023-09-07T07:06:23;9.02;;;5.35;;
76447;SDS011;65284;51.040;13.722;2023-09-07T07:08:51;9.43;;;5.22;;
76447;SDS011;65284;51.040;13.722;2023-09-07T07:11:18;7.75;;;4.93;;
76447;SDS011;65284;51.040;13.722;2023-09-07T07:13:45;7.68;;;4.75;;
76447;SDS011;65284;51.040;13.722;2023-09-07T07:16:11;8.73;;;5.13;;
76447;SDS011;65284;51.040;13.722;2023-09-07T07:18:38;8.88;;;5.25;;
76447;SDS011;65284;51.040;13.722;2023-09-07T07:21:19;8.35;;;5.22;;
76447;SDS011;65284;51.040;13.722;2023-09-07T07:23:46;8.73;;;4.88;;
76447;SDS011;65284;51.040;13.722;2023-09-07T07:26:12;12.73;;;4.80;;
76447;SDS011;65284;51.040;13.722;2023-09-07T07:28:38;7.05;;;4.70;;
76447;SDS011;65284;51.040;13.722;2023-09-07T07:31:19;8.52;;;4.70;;
76447;SDS011;65284;51.040;13.722;2023-09-07T07:33:46;9.10;;;5.50;;
76447;SDS011;65284;51.040;13.722;2023-09-07T07:36:14;12.27;;;5.07;;
76447;SDS011;65284;51.040;13.722;2023-09-07T07:38:41;8.95;;;5.10;;
76447;SDS011;65284;51.040;13.722;2023-09-07T07:41:07;9.00;;;5.22;;
76447;SDS011;65284;51.040;13.722;2023-09-07T07:43:34;8.68;;;5.60;;
76447;SDS011;65284;51.040;13.722;2023-09-07T07:46:01;8.20;;;5.13;;
76447;SDS011;65284;51.040;13.722;2023-09-07T07:48:27;9.10;;;4.90;;
76447;SDS011;65284;51.040;13.722;2023-09-07T07:50:55;7.65;;;5.30;;
76447;SDS011;65284;51.040;13.722;2023-09-07T07:53:22;8.25;;;4.82;;
76447;SDS011;65284;51.040;13.722;2023-09-07T07:55:48;8.23;;;5.10;;
76447;SDS011;65284;51.040;13.722;2023-09-07T07:58:15;8.25;;;5.05;;
76447;SDS011;65284;51.040;13.722;2023-09-07T08:00:41;8.50;;;5.00;;
76447;SDS011;65284;51.040;13.722;2023-09-07T08:03:11;9.25;;;5.32;;
76447;SDS011;65284;51.040;13.722;2023-09-07T08:05:37;9.93;;;5.40;;
76447;SDS011;65284;51.040;13.722;2023-09-07T08:08:05;8.13;;;4.70;;
76447;SDS011;65284;51.040;13.722;2023-09-07T08:10:35;8.85;;;5.50;;
76447;SDS011;65284;51.040;13.722;2023-09-07T08:13:07;10.88;;;6.13;;
76447;SDS011;65284;51.040;13.722;2023-09-07T08:15:34;12.32;;;6.20;;
76447;SDS011;65284;51.040;13.722;2023-09-07T08:18:00;7.53;;;5.28;;
76447;SDS011;65284;51.040;13.722;2023-09-07T08:20:27;7.30;;;4.60;;
76447;SDS011;65284;51.040;13.722;2023-09-07T08:22:55;7.38;;;4.53;;
76447;SDS011;65284;51.040;13.722;2023-09-07T08:25:22;7.38;;;4.75;;
76447;SDS011;65284;51.040;13.722;2023-09-07T08:27:49;8.48;;;4.93;;
76447;SDS011;65284;51.040;13.722;2023-09-07T08:30:16;10.32;;;5.40;;
76447;SDS011;65284;51.040;13.722;2023-09-07T08:32:44;8.10;;;5.03;;
76447;SDS011;65284;51.040;13.722;2023-09-07T08:35:14;11.88;;;4.90;;
76447;SDS011;65284;51.040;13.722;2023-09-07T08:37:43;8.68;;;5.00;;
76447;SDS011;65284;51.040;13.722;2023-09-07T08:40:09;10.20;;;5.65;;
76447;SDS011;65284;51.040;13.722;2023-09-07T08:42:37;10.50;;;5.95;;
76447;SDS011;65284;51.040;13.722;2023-09-07T08:45:07;9.57;;;4.95;;
76447;SDS011;65284;51.040;13.722;2023-09-07T08:47:36;8.20;;;5.00;;
76447;SDS011;65284;51.040;13.722;2023-09-07T08:50:04;10.68;;;5.32;;
76447;SDS011;65284;51.040;13.722;2023-09-07T08:52:33;8.98;;;4.90;;
76447;SDS011;65284;51.040;13.722;2023-09-07T08:55:01;7.00;;;5.05;;
76447;SDS011;65284;51.040;13.722;2023-09-07T08:57:31;11.50;;;5.13;;
76447;SDS011;65284;51.040;13.722;2023-09-07T08:59:58;8.82;;;4.95;;
76447;SDS011;65284;51.040;13.722;2023-09-07T09:02:25;8.55;;;5.15;;
76447;SDS011;65284;51.040;13.722;2023-09-07T09:04:52;9.00;;;5.28;;
76447;SDS011;65284;51.040;13.722;2023-09-07T09:07:19;8.00;;;5.20;;
76447;SDS011;65284;51.040;13.722;2023-09-07T09:09:48;12.00;;;5.80;;
76447;SDS011;65284;51.040;13.722;2023-09-07T09:12:16;6.32;;;4.40;;
76447;SDS011;65284;51.040;13.722;2023-09-07T09:14:43;6.97;;;4.22;;
76447;SDS011;65284;51.040;13.722;2023-09-07T09:17:13;7.68;;;4.32;;
76447;SDS011;65284;51.040;13.722;2023-09-07T09:19:41;9.70;;;5.63;;
76447;SDS011;65284;51.040;13.722;2023-09-07T09:22:08;7.05;;;4.15;;
76447;SDS011;65284;51.040;13.722;2023-09-07T09:24:35;11.18;;;4.80;;
76447;SDS011;65284;51.040;13.722;2023-09-07T09:27:02;7.65;;;4.32;;
76447;SDS011;65284;51.040;13.722;2023-09-07T09:29:33;7.07;;;3.80;;
76447;SDS011;65284;51.040;13.722;2023-09-07T09:32:04;8.00;;;4.10;;
76447;SDS011;65284;51.040;13.722;2023-09-07T09:34:32;5.38;;;3.95;;
76447;SDS011;65284;51.040;13.722;2023-09-07T09:37:01;8.18;;;4.22;;
76447;SDS011;65284;51.040;13.722;2023-09-07T09:39:28;6.30;;;4.18;;
76447;SDS011;65284;51.040;13.722;2023-09-07T09:41:55;6.45;;;4.40;;
76447;SDS011;65284;51.040;13.722;2023-09-07T09:44:22;7.35;;;4.30;;
76447;SDS011;65284;51.040;13.722;2023-09-07T09:46:52;7.13;;;4.53;;
76447;SDS011;65284;51.040;13.722;2023-09-07T09:49:22;10.55;;;4.22;;
76447;SDS011;65284;51.040;13.722;2023-09-07T09:51:49;8.32;;;4.70;;
76447;SDS011;65284;51.040;13.722;2023-09-07T09:54:19;7.30;;;4.75;;
76447;SDS011;65284;51.040;13.722;2023-09-07T09:56:46;9.00;;;4.70;;
76447;SDS011;65284;51.040;13.722;2023-09-07T09:59:13;9.18;;;4.43;;
76447;SDS011;65284;51.040;13.722;2023-09-07T10:01:43;7.15;;;4.68;;
76447;SDS011;65284;51.040;13.722;2023-09-07T10:04:14;9.95;;;4.22;;
76447;SDS011;65284;51.040;13.722;2023-09-07T10:06:50;8.80;;;5.00;;
76447;SDS011;65284;51.040;13.722;2023-09-07T10:09:20;7.57;;;4.25;;
76447;SDS011;65284;51.040;13.722;2023-09-07T10:11:57;7.30;;;4.70;;
76447;SDS011;65284;51.040;13.722;2023-09-07T10:14:25;7.55;;;4.07;;
76447;SDS011;65284;51.040;13.722;2023-09-07T10:16:53;7.30;;;4.07;;
76447;SDS011;65284;51.040;13.722;2023-09-07T10:19:22;7.78;;;4.10;;
76447;SDS011;65284;51.040;13.722;2023-09-07T10:21:54;6.32;;;4.10;;
76447;SDS011;65284;51.040;13.722;2023-09-07T10:26:55;6.45;;;4.10;;
76447;SDS011;65284;51.040;13.722;2023-09-07T10:29:23;6.25;;;4.20;;
76447;SDS011;65284;51.040;13.722;2023-09-07T10:31:52;7.07;;;4.28;;
76447;SDS011;65284;51.040;13.722;2023-09-07T10:34:19;7.90;;;4.38;;
76447;SDS011;65284;51.040;13.722;2023-09-07T10:36:48;7.95;;;4.60;;
76447;SDS011;65284;51.040;13.722;2023-09-07T10:39:21;7.72;;;4.85;;
76447;SDS011;65284;51.040;13.722;2023-09-07T10:41:48;8.68;;;5.53;;
76447;SDS011;65284;51.040;13.722;2023-09-07T10:44:14;7.97;;;4.72;;
76447;SDS011;65284;51.040;13.722;2023-09-07T10:46:41;9.68;;;4.22;;
76447;SDS011;65284;51.040;13.722;2023-09-07T10:49:08;10.00;;;4.57;;
76447;SDS011;65284;51.040;13.722;2023-09-07T10:51:41;8.23;;;4.38;;
76447;SDS011;65284;51.040;13.722;2023-09-07T10:54:22;6.05;;;3.85;;
76447;SDS011;65284;51.040;13.722;2023-09-07T10:56:50;6.60;;;3.65;;
76447;SDS011;65284;51.040;13.722;2023-09-07T10:59:17;5.88;;;3.90;;
76447;SDS011;65284;51.040;13.722;2023-09-07T11:01:43;7.70;;;4.35;;
76447;SDS011;65284;51.040;13.722;2023-09-07T11:04:11;7.80;;;4.00;;
76447;SDS011;65284;51.040;13.722;2023-09-07T11:06:38;9.65;;;3.80;;
76447;SDS011;65284;51.040;13.722;2023-09-07T11:09:06;6.47;;;3.92;;
76447;SDS011;65284;51.040;13.722;2023-09-07T11:11:36;8.15;;;3.97;;
76447;SDS011;65284;51.040;13.722;2023-09-07T11:14:03;6.13;;;3.83;;
76447;SDS011;65284;51.040;13.722;2023-09-07T11:16:32;6.63;;;3.90;;
76447;SDS011;65284;51.040;13.722;2023-09-07T11:19:03;6.45;;;3.60;;
76447;SDS011;65284;51.040;13.722;2023-09-07T11:21:31;8.45;;;3.90;;
76447;SDS011;65284;51.040;13.722;2023-09-07T11:24:02;7.18;;;4.40;;
76447;SDS011;65284;51.040;13.722;2023-09-07T11:26:42;10.32;;;5.10;;
76447;SDS011;65284;51.040;13.722;2023-09-07T11:29:09;6.30;;;4.07;;
76447;SDS011;65284;51.040;13.722;2023-09-07T11:31:35;6.45;;;3.90;;
76447;SDS011;65284;51.040;13.722;2023-09-07T11:34:03;6.45;;;3.60;;
76447;SDS011;65284;51.040;13.722;2023-09-07T11:36:34;6.50;;;3.85;;
76447;SDS011;65284;51.040;13.722;2023-09-07T11:39:00;6.47;;;4.05;;
76447;SDS011;65284;51.040;13.722;2023-09-07T11:41:27;8.85;;;4.13;;
76447;SDS011;65284;51.040;13.722;2023-09-07T11:43:53;5.65;;;3.80;;
76447;SDS011;65284;51.040;13.722;2023-09-07T11:46:20;6.57;;;3.83;;
76447;SDS011;65284;51.040;13.722;2023-09-07T11:48:46;10.95;;;6.50;;
76447;SDS011;65284;51.040;13.722;2023-09-07T11:51:13;8.85;;;5.03;;
76447;SDS011;65284;51.040;13.722;2023-09-07T11:53:39;8.52;;;5.85;;
76447;SDS011;65284;51.040;13.722;2023-09-07T11:56:06;8.65;;;4.22;;
76447;SDS011;65284;51.040;13.722;2023-09-07T11:58:32;7.00;;;3.90;;
76447;SDS011;65284;51.040;13.722;2023-09-07T12:00:59;7.97;;;3.95;;
76447;SDS011;65284;51.040;13.722;2023-09-07T12:03:26;5.20;;;3.45;;
76447;SDS011;65284;51.040;13.722;2023-09-07T12:05:53;6.00;;;3.60;;
76447;SDS011;65284;51.040;13.722;2023-09-07T12:08:19;7.28;;;3.53;;
76447;SDS011;65284;51.040;13.722;2023-09-07T12:10:46;7.22;;;3.63;;
76447;SDS011;65284;51.040;13.722;2023-09-07T12:13:13;7.63;;;3.40;;
76447;SDS011;65284;51.040;13.722;2023-09-07T12:15:39;6.05;;;3.88;;
76447;SDS011;65284;51.040;13.722;2023-09-07T12:18:05;9.18;;;3.83;;
76447;SDS011;65284;51.040;13.722;2023-09-07T12:20:32;5.38;;;3.97;;
76447;SDS011;65284;51.040;13.722;2023-09-07T12:23:01;5.50;;;3.67;;
76447;SDS011;65284;51.040;13.722;2023-09-07T12:25:28;6.75;;;3.70;;
76447;SDS011;65284;51.040;13.722;2023-09-07T12:27:54;6.18;;;3.13;;
76447;SDS011;65284;51.040;13.722;2023-09-07T12:30:22;5.82;;;3.60;;
76447;SDS011;65284;51.040;13.722;2023-09-07T12:32:51;8.18;;;3.50;;
76447;SDS011;65284;51.040;13.722;2023-09-07T12:35:18;6.53;;;3.90;;
76447;SDS011;65284;51.040;13.722;2023-09-07T12:37:46;8.63;;;3.80;;
76447;SDS011;65284;51.040;13.722;2023-09-07T12:40:13;6.20;;;3.50;;
76447;SDS011;65284;51.040;13.722;2023-09-07T12:42:40;6.68;;;3.47;;
76447;SDS011;65284;51.040;13.722;2023-09-07T12:45:08;6.25;;;3.42;;
76447;SDS011;65284;51.040;13.722;2023-09-07T12:47:35;5.85;;;3.40;;
76447;SDS011;65284;51.040;13.722;2023-09-07T12:50:03;7.13;;;3.75;;
76447;SDS011;65284;51.040;13.722;2023-09-07T12:52:31;5.63;;;3.90;;
76447;SDS011;65284;51.040;13.722;2023-09-07T12:55:00;6.90;;;3.88;;
76447;SDS011;65284;51.040;13.722;2023-09-07T12:57:27;6.90;;;4.15;;
76447;SDS011;65284;51.040;13.722;2023-09-07T12:59:54;8.82;;;5.30;;
76447;SDS011;65284;51.040;13.722;2023-09-07T13:02:20;6.50;;;4.10;;
76447;SDS011;65284;51.040;13.722;2023-09-07T13:04:47;6.25;;;4.03;;
76447;SDS011;65284;51.040;13.722;2023-09-07T13:07:14;7.95;;;4.65;;
76447;SDS011;65284;51.040;13.722;2023-09-07T13:09:42;8.57;;;4.93;;
76447;SDS011;65284;51.040;13.722;2023-09-07T13:12:09;8.45;;;3.67;;
76447;SDS011;65284;51.040;13.722;2023-09-07T13:14:35;8.05;;;4.60;;
76447;SDS011;65284;51.040;13.722;2023-09-07T13:17:02;6.80;;;3.75;;
76447;SDS011;65284;51.040;13.722;2023-09-07T13:19:29;8.57;;;5.22;;
76447;SDS011;65284;51.040;13.722;2023-09-07T13:21:55;7.85;;;5.35;;
76447;SDS011;65284;51.040;13.722;2023-09-07T13:24:22;15.02;;;9.93;;
76447;SDS011;65284;51.040;13.722;2023-09-07T13:26:50;10.00;;;5.45;;
76447;SDS011;65284;51.040;13.722;2023-09-07T13:29:17;7.97;;;4.80;;
76447;SDS011;65284;51.040;13.722;2023-09-07T13:31:43;7.63;;;3.90;;
76447;SDS011;65284;51.040;13.722;2023-09-07T13:34:10;6.75;;;3.50;;
76447;SDS011;65284;51.040;13.722;2023-09-07T13:36:37;6.90;;;3.55;;
76447;SDS011;65284;51.040;13.722;2023-09-07T13:39:04;5.93;;;3.60;;
76447;SDS011;65284;51.040;13.722;2023-09-07T13:41:31;4.95;;;2.95;;
76447;SDS011;65284;51.040;13.722;2023-09-07T13:43:57;6.47;;;3.03;;
76447;SDS011;65284;51.040;13.722;2023-09-07T13:46:25;6.13;;;4.13;;
76447;SDS011;65284;51.040;13.722;2023-09-07T13:48:54;8.85;;;5.55;;
76447;SDS011;65284;51.040;13.722;2023-09-07T13:51:20;6.13;;;3.90;;
76447;SDS011;65284;51.040;13.722;2023-09-07T13:53:47;8.60;;;5.63;;
76447;SDS011;65284;51.040;13.722;2023-09-07T13:56:13;9.40;;;5.68;;
76447;SDS011;65284;51.040;13.722;2023-09-07T13:58:40;10.02;;;6.82;;
76447;SDS011;65284;51.040;13.722;2023-09-07T14:01:06;6.80;;;4.57;;
76447;SDS011;65284;51.040;13.722;2023-09-07T14:03:33;6.50;;;3.97;;
76447;SDS011;65284;51.040;13.722;2023-09-07T14:06:01;5.63;;;3.63;;
76447;SDS011;65284;51.040;13.722;2023-09-07T14:08:28;5.30;;;3.30;;
76447;SDS011;65284;51.040;13.722;2023-09-07T14:10:56;6.15;;;3.28;;
76447;SDS011;65284;51.040;13.722;2023-09-07T14:13:26;5.53;;;2.97;;
76447;SDS011;65284;51.040;13.722;2023-09-07T14:15:52;5.90;;;3.53;;
76447;SDS011;65284;51.040;13.722;2023-09-07T14:18:19;5.57;;;3.10;;
76447;SDS011;65284;51.040;13.722;2023-09-07T14:20:45;5.20;;;3.40;;
76447;SDS011;65284;51.040;13.722;2023-09-07T14:23:11;7.28;;;4.57;;
76447;SDS011;65284;51.040;13.722;2023-09-07T14:25:39;9.20;;;5.03;;
76447;SDS011;65284;51.040;13.722;2023-09-07T14:28:08;8.55;;;4.78;;
76447;SDS011;65284;51.040;13.722;2023-09-07T14:30:34;8.02;;;5.20;;
76447;SDS011;65284;51.040;13.722;2023-09-07T14:33:01;10.23;;;5.22;;
76447;SDS011;65284;51.040;13.722;2023-09-07T14:35:27;10.50;;;6.32;;